sensor_id;sensor_type;location;lat;lon;timestamp;temperature;humidity
39677;DHT22;27789;50.840;4.386;2023-07-30T00:00:42;17.40;99.90
39677;DHT22;27789;50.840;4.386;2023-07-30T00:03:07;17.40;99.90
39677;DHT22;27789;50.840;4.386;2023-07-30T00:05:33;17.30;99.90
39677;DHT22;27789;50.840;4.386;2023-07-30T00:07:58;17.30;99.90
39677;DHT22;27789;50.840;4.386;2023-07-30T00:10:24;17.30;99.90
39677;DHT22;27789;50.840;4.386;2023-07-30T00:12:49;17.30;99.90
39677;DHT22;27789;50.840;4.386;2023-07-30T00:15:15;17.30;99.90
39677;DHT22;27789;50.840;4.386;2023-07-30T00:17:40;17.30;99.90
39677;DHT22;27789;50.840;4.386;2023-07-30T00:20:06;17.20;99.90
39677;DHT22;27789;50.840;4.386;2023-07-30T00:22:32;17.20;99.90
39677;DHT22;27789;50.840;4.386;2023-07-30T00:24:58;17.20;99.90
39677;DHT22;27789;50.840;4.386;2023-07-30T00:27:23;17.20;99.90
39677;DHT22;27789;50.840;4.386;2023-07-30T00:29:49;17.10;99.90
39677;DHT22;27789;50.840;4.386;2023-07-30T00:32:14;17.10;99.90
39677;DHT22;27789;50.840;4.386;2023-07-30T00:34:41;17.10;99.90
39677;DHT22;27789;50.840;4.386;2023-07-30T00:37:07;17.00;99.90
39677;DHT22;27789;50.840;4.386;2023-07-30T00:39:32;17.00;99.90
39677;DHT22;27789;50.840;4.386;2023-07-30T00:41:58;17.10;99.90
39677;DHT22;27789;50.840;4.386;2023-07-30T00:44:23;17.10;99.90
39677;DHT22;27789;50.840;4.386;2023-07-30T00:46:49;17.10;99.90
39677;DHT22;27789;50.840;4.386;2023-07-30T00:49:14;17.10;99.90
39677;DHT22;27789;50.840;4.386;2023-07-30T00:51:40;17.10;99.90
39677;DHT22;27789;50.840;4.386;2023-07-30T00:54:06;17.10;99.90
39677;DHT22;27789;50.840;4.386;2023-07-30T00:56:31;17.20;99.90
39677;DHT22;27789;50.840;4.386;2023-07-30T00:58:57;17.20;99.90
39677;DHT22;27789;50.840;4.386;2023-07-30T01:01:22;17.30;99.90
39677;DHT22;27789;50.840;4.386;2023-07-30T01:03:48;17.30;99.90
39677;DHT22;27789;50.840;4.386;2023-07-30T01:06:15;17.30;99.90
39677;DHT22;27789;50.840;4.386;2023-07-30T01:08:40;17.20;99.90
39677;DHT22;27789;50.840;4.386;2023-07-30T01:11:06;17.20;99.90
39677;DHT22;27789;50.840;4.386;2023-07-30T01:13:32;17.20;99.90
39677;DHT22;27789;50.840;4.386;2023-07-30T01:15:58;17.20;99.90
39677;DHT22;27789;50.840;4.386;2023-07-30T01:18:24;17.20;99.90
39677;DHT22;27789;50.840;4.386;2023-07-30T01:20:53;17.20;99.90
39677;DHT22;27789;50.840;4.386;2023-07-30T01:23:18;17.30;99.90
39677;DHT22;27789;50.840;4.386;2023-07-30T01:25:44;17.30;99.90
39677;DHT22;27789;50.840;4.386;2023-07-30T01:28:10;17.40;99.90
39677;DHT22;27789;50.840;4.386;2023-07-30T01:30:42;17.40;99.90
39677;DHT22;27789;50.840;4.386;2023-07-30T01:33:10;17.40;99.90
39677;DHT22;27789;50.840;4.386;2023-07-30T01:35:36;17.40;99.90
39677;DHT22;27789;50.840;4.386;2023-07-30T01:38:02;17.40;99.90
39677;DHT22;27789;50.840;4.386;2023-07-30T01:40:31;17.40;99.90
39677;DHT22;27789;50.840;4.386;2023-07-30T01:42:56;17.40;99.90
39677;DHT22;27789;50.840;4.386;2023-07-30T01:45:22;17.40;99.90
39677;DHT22;27789;50.840;4.386;2023-07-30T01:47:47;17.40;99.90
39677;DHT22;27789;50.840;4.386;2023-07-30T01:50:13;17.30;99.90
39677;DHT22;27789;50.840;4.386;2023-07-30T01:52:38;17.30;99.90
39677;DHT22;27789;50.840;4.386;2023-07-30T01:55:04;17.30;99.90
39677;DHT22;27789;50.840;4.386;2023-07-30T01:57:29;17.40;99.90
39677;DHT22;27789;50.840;4.386;2023-07-30T01:59:55;17.40;99.90
39677;DHT22;27789;50.840;4.386;2023-07-30T02:02:20;17.40;99.90
39677;DHT22;27789;50.840;4.386;2023-07-30T02:04:46;17.40;99.90
39677;DHT22;27789;50.840;4.386;2023-07-30T02:07:11;17.40;99.90
39677;DHT22;27789;50.840;4.386;2023-07-30T02:09:37;17.30;99.90
39677;DHT22;27789;50.840;4.386;2023-07-30T02:12:02;17.30;99.90
39677;DHT22;27789;50.840;4.386;2023-07-30T02:14:28;17.30;99.90
39677;DHT22;27789;50.840;4.386;2023-07-30T02:16:53;17.30;99.90
39677;DHT22;27789;50.840;4.386;2023-07-30T02:19:19;17.30;99.90
39677;DHT22;27789;50.840;4.386;2023-07-30T02:21:44;17.30;99.90
39677;DHT22;27789;50.840;4.386;2023-07-30T02:24:10;17.20;99.90
39677;DHT22;27789;50.840;4.386;2023-07-30T02:26:37;17.20;99.90
39677;DHT22;27789;50.840;4.386;2023-07-30T02:29:03;17.20;99.90
39677;DHT22;27789;50.840;4.386;2023-07-30T02:31:28;17.20;99.90
39677;DHT22;27789;50.840;4.386;2023-07-30T02:33:54;17.20;99.90
39677;DHT22;27789;50.840;4.386;2023-07-30T02:36:19;17.20;99.90
39677;DHT22;27789;50.840;4.386;2023-07-30T02:38:44;17.10;99.90
39677;DHT22;27789;50.840;4.386;2023-07-30T02:41:10;17.10;99.90
39677;DHT22;27789;50.840;4.386;2023-07-30T02:43:35;17.10;99.90
39677;DHT22;27789;50.840;4.386;2023-07-30T02:46:01;17.20;99.90
39677;DHT22;27789;50.840;4.386;2023-07-30T02:48:26;17.10;99.90
39677;DHT22;27789;50.840;4.386;2023-07-30T02:50:52;17.20;99.90
39677;DHT22;27789;50.840;4.386;2023-07-30T02:53:17;17.20;99.90
39677;DHT22;27789;50.840;4.386;2023-07-30T02:55:43;17.20;99.90
39677;DHT22;27789;50.840;4.386;2023-07-30T02:58:08;17.20;99.90
39677;DHT22;27789;50.840;4.386;2023-07-30T03:00:34;17.10;99.90
39677;DHT22;27789;50.840;4.386;2023-07-30T03:02:59;17.10;99.90
39677;DHT22;27789;50.840;4.386;2023-07-30T03:05:26;17.10;99.90
39677;DHT22;27789;50.840;4.386;2023-07-30T03:07:51;17.00;99.90
39677;DHT22;27789;50.840;4.386;2023-07-30T03:10:17;17.00;99.90
39677;DHT22;27789;50.840;4.386;2023-07-30T03:12:42;16.90;99.90
39677;DHT22;27789;50.840;4.386;2023-07-30T03:15:08;17.00;99.90
39677;DHT22;27789;50.840;4.386;2023-07-30T03:17:33;17.00;99.90
39677;DHT22;27789;50.840;4.386;2023-07-30T03:19:59;17.00;99.90
39677;DHT22;27789;50.840;4.386;2023-07-30T03:22:24;16.90;99.90
39677;DHT22;27789;50.840;4.386;2023-07-30T03:24:50;16.90;99.90
39677;DHT22;27789;50.840;4.386;2023-07-30T03:27:15;17.00;99.90
39677;DHT22;27789;50.840;4.386;2023-07-30T03:29:41;16.90;99.90
39677;DHT22;27789;50.840;4.386;2023-07-30T03:32:07;16.90;99.90
39677;DHT22;27789;50.840;4.386;2023-07-30T03:34:32;17.00;99.90
39677;DHT22;27789;50.840;4.386;2023-07-30T03:36:58;17.00;99.90
39677;DHT22;27789;50.840;4.386;2023-07-30T03:39:25;17.00;99.90
39677;DHT22;27789;50.840;4.386;2023-07-30T03:41:51;17.00;99.90
39677;DHT22;27789;50.840;4.386;2023-07-30T03:44:16;17.00;99.90
39677;DHT22;27789;50.840;4.386;2023-07-30T03:46:43;17.00;99.90
39677;DHT22;27789;50.840;4.386;2023-07-30T03:49:09;17.00;99.90
39677;DHT22;27789;50.840;4.386;2023-07-30T03:51:34;17.00;99.90
39677;DHT22;27789;50.840;4.386;2023-07-30T03:54:00;17.00;99.90
39677;DHT22;27789;50.840;4.386;2023-07-30T03:56:25;16.90;99.90
39677;DHT22;27789;50.840;4.386;2023-07-30T03:58:51;17.00;99.90
39677;DHT22;27789;50.840;4.386;2023-07-30T04:01:16;16.90;99.90
39677;DHT22;27789;50.840;4.386;2023-07-30T04:03:42;16.90;99.90
39677;DHT22;27789;50.840;4.386;2023-07-30T04:06:07;17.00;99.90
39677;DHT22;27789;50.840;4.386;2023-07-30T04:08:33;17.00;99.90
39677;DHT22;27789;50.840;4.386;2023-07-30T04:10:58;16.90;99.90
39677;DHT22;27789;50.840;4.386;2023-07-30T04:13:23;16.90;99.90
39677;DHT22;27789;50.840;4.386;2023-07-30T04:15:49;16.90;99.90
39677;DHT22;27789;50.840;4.386;2023-07-30T04:18:14;16.90;99.90
39677;DHT22;27789;50.840;4.386;2023-07-30T04:20:40;16.80;99.90
39677;DHT22;27789;50.840;4.386;2023-07-30T04:23:05;16.70;99.90
39677;DHT22;27789;50.840;4.386;2023-07-30T04:25:31;16.70;99.90
39677;DHT22;27789;50.840;4.386;2023-07-30T04:27:56;16.70;99.90
39677;DHT22;27789;50.840;4.386;2023-07-30T04:30:22;16.70;99.90
39677;DHT22;27789;50.840;4.386;2023-07-30T04:32:47;16.70;99.90
39677;DHT22;27789;50.840;4.386;2023-07-30T04:35:13;16.60;99.90
39677;DHT22;27789;50.840;4.386;2023-07-30T04:37:38;16.60;99.90
39677;DHT22;27789;50.840;4.386;2023-07-30T04:40:04;16.60;99.90
39677;DHT22;27789;50.840;4.386;2023-07-30T04:42:30;16.60;99.90
39677;DHT22;27789;50.840;4.386;2023-07-30T04:44:55;16.60;99.90
39677;DHT22;27789;50.840;4.386;2023-07-30T04:47:21;16.60;99.90
39677;DHT22;27789;50.840;4.386;2023-07-30T04:49:46;16.60;99.90
39677;DHT22;27789;50.840;4.386;2023-07-30T04:52:12;16.60;99.90
39677;DHT22;27789;50.840;4.386;2023-07-30T04:54:37;16.50;99.90
39677;DHT22;27789;50.840;4.386;2023-07-30T04:57:03;16.50;99.90
39677;DHT22;27789;50.840;4.386;2023-07-30T04:59:29;16.50;99.90
39677;DHT22;27789;50.840;4.386;2023-07-30T05:01:54;16.50;99.90
39677;DHT22;27789;50.840;4.386;2023-07-30T05:04:20;16.60;99.90
39677;DHT22;27789;50.840;4.386;2023-07-30T05:06:45;16.50;99.90
39677;DHT22;27789;50.840;4.386;2023-07-30T05:09:10;16.50;99.90
39677;DHT22;27789;50.840;4.386;2023-07-30T05:11:38;16.60;99.90
39677;DHT22;27789;50.840;4.386;2023-07-30T05:14:03;16.60;99.90
39677;DHT22;27789;50.840;4.386;2023-07-30T05:16:29;16.60;99.90
39677;DHT22;27789;50.840;4.386;2023-07-30T05:18:54;16.60;99.90
39677;DHT22;27789;50.840;4.386;2023-07-30T05:21:20;16.70;99.90
39677;DHT22;27789;50.840;4.386;2023-07-30T05:23:45;16.70;99.90
39677;DHT22;27789;50.840;4.386;2023-07-30T05:26:11;16.60;99.90
39677;DHT22;27789;50.840;4.386;2023-07-30T05:28:36;16.60;99.90
39677;DHT22;27789;50.840;4.386;2023-07-30T05:31:02;16.70;99.90
39677;DHT22;27789;50.840;4.386;2023-07-30T05:33:27;16.70;99.90
39677;DHT22;27789;50.840;4.386;2023-07-30T05:35:53;16.80;99.90
39677;DHT22;27789;50.840;4.386;2023-07-30T05:38:18;16.80;99.90
39677;DHT22;27789;50.840;4.386;2023-07-30T05:40:44;16.80;99.90
39677;DHT22;27789;50.840;4.386;2023-07-30T05:43:09;16.80;99.90
39677;DHT22;27789;50.840;4.386;2023-07-30T05:45:35;16.80;99.90
39677;DHT22;27789;50.840;4.386;2023-07-30T05:48:00;16.80;99.90
39677;DHT22;27789;50.840;4.386;2023-07-30T05:50:26;16.70;99.90
39677;DHT22;27789;50.840;4.386;2023-07-30T05:52:51;16.80;99.90
39677;DHT22;27789;50.840;4.386;2023-07-30T05:55:17;16.80;99.90
39677;DHT22;27789;50.840;4.386;2023-07-30T05:57:42;16.70;99.90
39677;DHT22;27789;50.840;4.386;2023-07-30T06:00:08;16.70;99.90
39677;DHT22;27789;50.840;4.386;2023-07-30T06:02:34;16.70;99.90
39677;DHT22;27789;50.840;4.386;2023-07-30T06:04:59;16.80;99.90
39677;DHT22;27789;50.840;4.386;2023-07-30T06:07:25;16.80;99.90
39677;DHT22;27789;50.840;4.386;2023-07-30T06:09:50;16.90;99.90
39677;DHT22;27789;50.840;4.386;2023-07-30T06:12:16;16.90;99.90
39677;DHT22;27789;50.840;4.386;2023-07-30T06:14:41;17.00;99.90
39677;DHT22;27789;50.840;4.386;2023-07-30T06:17:07;17.10;99.90
39677;DHT22;27789;50.840;4.386;2023-07-30T06:19:34;17.10;99.90
39677;DHT22;27789;50.840;4.386;2023-07-30T06:21:59;17.10;99.90
39677;DHT22;27789;50.840;4.386;2023-07-30T06:24:25;17.00;99.90
39677;DHT22;27789;50.840;4.386;2023-07-30T06:26:50;17.20;99.90
39677;DHT22;27789;50.840;4.386;2023-07-30T06:29:16;17.10;99.90
39677;DHT22;27789;50.840;4.386;2023-07-30T06:31:41;17.10;99.90
39677;DHT22;27789;50.840;4.386;2023-07-30T06:34:07;16.90;99.90
39677;DHT22;27789;50.840;4.386;2023-07-30T06:36:32;17.00;99.90
39677;DHT22;27789;50.840;4.386;2023-07-30T06:38:58;17.10;99.90
39677;DHT22;27789;50.840;4.386;2023-07-30T06:41:23;17.10;99.90
39677;DHT22;27789;50.840;4.386;2023-07-30T06:43:49;17.20;99.90
39677;DHT22;27789;50.840;4.386;2023-07-30T06:46:14;17.20;99.90
39677;DHT22;27789;50.840;4.386;2023-07-30T06:48:40;17.10;99.90
39677;DHT22;27789;50.840;4.386;2023-07-30T06:51:06;17.00;99.90
39677;DHT22;27789;50.840;4.386;2023-07-30T06:53:32;17.00;99.90
39677;DHT22;27789;50.840;4.386;2023-07-30T06:55:57;17.00;99.90
39677;DHT22;27789;50.840;4.386;2023-07-30T06:58:23;17.10;99.90
39677;DHT22;27789;50.840;4.386;2023-07-30T07:00:48;17.10;99.90
39677;DHT22;27789;50.840;4.386;2023-07-30T07:03:13;17.10;99.90
39677;DHT22;27789;50.840;4.386;2023-07-30T07:05:39;17.10;99.90
39677;DHT22;27789;50.840;4.386;2023-07-30T07:08:04;17.20;99.90
39677;DHT22;27789;50.840;4.386;2023-07-30T07:10:31;17.20;99.90
39677;DHT22;27789;50.840;4.386;2023-07-30T07:12:56;17.30;99.90
39677;DHT22;27789;50.840;4.386;2023-07-30T07:15:21;17.30;99.90
39677;DHT22;27789;50.840;4.386;2023-07-30T07:17:47;17.30;99.90
39677;DHT22;27789;50.840;4.386;2023-07-30T07:20:12;17.40;99.90
39677;DHT22;27789;50.840;4.386;2023-07-30T07:22:38;17.50;99.90
39677;DHT22;27789;50.840;4.386;2023-07-30T07:25:04;17.50;99.90
39677;DHT22;27789;50.840;4.386;2023-07-30T07:27:29;17.60;99.90
39677;DHT22;27789;50.840;4.386;2023-07-30T07:29:55;17.80;99.90
39677;DHT22;27789;50.840;4.386;2023-07-30T07:32:20;18.00;99.90
39677;DHT22;27789;50.840;4.386;2023-07-30T07:34:49;18.20;99.90
39677;DHT22;27789;50.840;4.386;2023-07-30T07:37:14;18.30;99.90
39677;DHT22;27789;50.840;4.386;2023-07-30T07:39:45;18.30;99.90
39677;DHT22;27789;50.840;4.386;2023-07-30T07:42:11;18.40;99.90
39677;DHT22;27789;50.840;4.386;2023-07-30T07:44:36;18.40;99.90
39677;DHT22;27789;50.840;4.386;2023-07-30T07:47:02;18.40;99.90
39677;DHT22;27789;50.840;4.386;2023-07-30T07:49:27;18.50;99.90
39677;DHT22;27789;50.840;4.386;2023-07-30T07:51:53;18.50;99.90
39677;DHT22;27789;50.840;4.386;2023-07-30T07:54:18;18.60;99.90
39677;DHT22;27789;50.840;4.386;2023-07-30T07:56:44;18.50;99.90
39677;DHT22;27789;50.840;4.386;2023-07-30T07:59:09;18.60;99.90
39677;DHT22;27789;50.840;4.386;2023-07-30T08:01:35;18.70;99.90
39677;DHT22;27789;50.840;4.386;2023-07-30T08:04:01;18.70;99.90
39677;DHT22;27789;50.840;4.386;2023-07-30T08:06:26;18.80;99.90
39677;DHT22;27789;50.840;4.386;2023-07-30T08:08:52;18.90;99.90
39677;DHT22;27789;50.840;4.386;2023-07-30T08:11:17;18.90;99.90
39677;DHT22;27789;50.840;4.386;2023-07-30T08:13:43;19.00;99.90
39677;DHT22;27789;50.840;4.386;2023-07-30T08:16:08;19.10;99.90
39677;DHT22;27789;50.840;4.386;2023-07-30T08:18:34;19.20;99.90
39677;DHT22;27789;50.840;4.386;2023-07-30T08:21:00;19.10;99.90
39677;DHT22;27789;50.840;4.386;2023-07-30T08:23:25;19.20;99.90
39677;DHT22;27789;50.840;4.386;2023-07-30T08:25:51;19.20;99.90
39677;DHT22;27789;50.840;4.386;2023-07-30T08:28:16;19.40;99.90
39677;DHT22;27789;50.840;4.386;2023-07-30T08:30:42;19.50;99.90
39677;DHT22;27789;50.840;4.386;2023-07-30T08:33:07;19.40;99.90
39677;DHT22;27789;50.840;4.386;2023-07-30T08:35:33;19.30;99.90
39677;DHT22;27789;50.840;4.386;2023-07-30T08:37:59;19.20;99.90
39677;DHT22;27789;50.840;4.386;2023-07-30T08:40:24;19.30;99.90
39677;DHT22;27789;50.840;4.386;2023-07-30T08:42:50;19.40;99.90
39677;DHT22;27789;50.840;4.386;2023-07-30T08:45:16;19.40;99.90
39677;DHT22;27789;50.840;4.386;2023-07-30T08:47:42;19.40;99.90
39677;DHT22;27789;50.840;4.386;2023-07-30T08:50:07;19.40;99.90
39677;DHT22;27789;50.840;4.386;2023-07-30T08:52:33;19.40;99.90
39677;DHT22;27789;50.840;4.386;2023-07-30T08:55:00;19.40;99.90
39677;DHT22;27789;50.840;4.386;2023-07-30T08:57:27;19.40;99.90
39677;DHT22;27789;50.840;4.386;2023-07-30T08:59:54;19.40;99.90
39677;DHT22;27789;50.840;4.386;2023-07-30T09:02:24;19.40;99.90
39677;DHT22;27789;50.840;4.386;2023-07-30T09:04:51;19.30;99.90
39677;DHT22;27789;50.840;4.386;2023-07-30T09:07:18;19.40;99.90
39677;DHT22;27789;50.840;4.386;2023-07-30T09:09:44;19.50;99.90
39677;DHT22;27789;50.840;4.386;2023-07-30T09:12:12;19.50;99.90
39677;DHT22;27789;50.840;4.386;2023-07-30T09:14:38;19.50;99.90
39677;DHT22;27789;50.840;4.386;2023-07-30T09:17:03;19.40;99.90
39677;DHT22;27789;50.840;4.386;2023-07-30T09:19:33;19.40;99.90
39677;DHT22;27789;50.840;4.386;2023-07-30T09:21:59;19.20;99.90
39677;DHT22;27789;50.840;4.386;2023-07-30T09:24:25;19.20;99.90
39677;DHT22;27789;50.840;4.386;2023-07-30T09:26:50;19.30;99.90
39677;DHT22;27789;50.840;4.386;2023-07-30T09:29:16;19.30;99.90
39677;DHT22;27789;50.840;4.386;2023-07-30T09:31:48;19.30;99.90
39677;DHT22;27789;50.840;4.386;2023-07-30T09:34:17;19.40;99.90
39677;DHT22;27789;50.840;4.386;2023-07-30T09:36:46;19.40;99.90
39677;DHT22;27789;50.840;4.386;2023-07-30T09:39:16;19.50;99.90
39677;DHT22;27789;50.840;4.386;2023-07-30T09:41:42;19.60;99.90
39677;DHT22;27789;50.840;4.386;2023-07-30T09:44:07;19.70;99.90
39677;DHT22;27789;50.840;4.386;2023-07-30T09:46:34;19.60;99.90
39677;DHT22;27789;50.840;4.386;2023-07-30T09:49:06;19.50;99.90
39677;DHT22;27789;50.840;4.386;2023-07-30T09:51:32;19.40;99.90
39677;DHT22;27789;50.840;4.386;2023-07-30T09:53:59;19.20;99.90
39677;DHT22;27789;50.840;4.386;2023-07-30T09:56:25;19.20;99.90
39677;DHT22;27789;50.840;4.386;2023-07-30T09:58:51;19.30;99.90
39677;DHT22;27789;50.840;4.386;2023-07-30T10:01:17;19.20;99.90
39677;DHT22;27789;50.840;4.386;2023-07-30T10:03:43;19.40;99.90
39677;DHT22;27789;50.840;4.386;2023-07-30T10:06:09;19.40;99.90
39677;DHT22;27789;50.840;4.386;2023-07-30T10:08:37;19.50;99.90
39677;DHT22;27789;50.840;4.386;2023-07-30T10:11:04;19.50;99.90
39677;DHT22;27789;50.840;4.386;2023-07-30T10:13:30;19.40;99.90
39677;DHT22;27789;50.840;4.386;2023-07-30T10:15:56;19.40;99.90
39677;DHT22;27789;50.840;4.386;2023-07-30T10:18:25;19.40;99.90
39677;DHT22;27789;50.840;4.386;2023-07-30T10:20:54;19.50;99.90
39677;DHT22;27789;50.840;4.386;2023-07-30T10:23:20;19.70;99.90
39677;DHT22;27789;50.840;4.386;2023-07-30T10:25:46;19.90;99.90
39677;DHT22;27789;50.840;4.386;2023-07-30T10:30:57;20.30;99.90
39677;DHT22;27789;50.840;4.386;2023-07-30T10:33:22;20.40;99.90
39677;DHT22;27789;50.840;4.386;2023-07-30T10:35:48;20.60;99.90
39677;DHT22;27789;50.840;4.386;2023-07-30T10:38:20;20.70;99.90
39677;DHT22;27789;50.840;4.386;2023-07-30T10:41:07;20.90;99.90
39677;DHT22;27789;50.840;4.386;2023-07-30T10:43:35;20.90;99.90
39677;DHT22;27789;50.840;4.386;2023-07-30T10:46:01;20.80;99.90
39677;DHT22;27789;50.840;4.386;2023-07-30T10:48:33;20.70;99.90
39677;DHT22;27789;50.840;4.386;2023-07-30T10:51:00;20.50;99.90
39677;DHT22;27789;50.840;4.386;2023-07-30T10:53:25;20.30;99.90
39677;DHT22;27789;50.840;4.386;2023-07-30T10:55:52;20.20;99.90
39677;DHT22;27789;50.840;4.386;2023-07-30T10:58:17;20.20;99.90
39677;DHT22;27789;50.840;4.386;2023-07-30T11:00:43;20.30;99.90
39677;DHT22;27789;50.840;4.386;2023-07-30T11:03:08;20.50;99.90
39677;DHT22;27789;50.840;4.386;2023-07-30T11:05:34;20.80;99.90
39677;DHT22;27789;50.840;4.386;2023-07-30T11:08:03;21.20;99.90
39677;DHT22;27789;50.840;4.386;2023-07-30T11:10:28;21.40;99.90
39677;DHT22;27789;50.840;4.386;2023-07-30T11:12:54;21.50;99.90
39677;DHT22;27789;50.840;4.386;2023-07-30T11:15:19;21.70;99.90
39677;DHT22;27789;50.840;4.386;2023-07-30T11:17:45;22.00;99.90
39677;DHT22;27789;50.840;4.386;2023-07-30T11:20:26;22.10;99.90
39677;DHT22;27789;50.840;4.386;2023-07-30T11:22:52;21.90;99.90
39677;DHT22;27789;50.840;4.386;2023-07-30T11:25:18;21.80;99.90
39677;DHT22;27789;50.840;4.386;2023-07-30T11:27:47;22.10;99.90
39677;DHT22;27789;50.840;4.386;2023-07-30T11:30:13;23.00;99.90
39677;DHT22;27789;50.840;4.386;2023-07-30T11:32:38;24.50;99.90
39677;DHT22;27789;50.840;4.386;2023-07-30T11:35:04;25.70;99.50
39677;DHT22;27789;50.840;4.386;2023-07-30T11:37:30;25.90;98.60
39677;DHT22;27789;50.840;4.386;2023-07-30T11:39:56;25.00;97.80
39677;DHT22;27789;50.840;4.386;2023-07-30T11:42:22;24.70;98.00
39677;DHT22;27789;50.840;4.386;2023-07-30T11:44:47;24.90;97.80
39677;DHT22;27789;50.840;4.386;2023-07-30T11:47:20;25.20;97.50
39677;DHT22;27789;50.840;4.386;2023-07-30T11:49:54;25.00;97.70
39677;DHT22;27789;50.840;4.386;2023-07-30T11:52:20;25.20;97.40
39677;DHT22;27789;50.840;4.386;2023-07-30T11:54:45;25.50;96.50
39677;DHT22;27789;50.840;4.386;2023-07-30T11:57:11;26.30;96.00
39677;DHT22;27789;50.840;4.386;2023-07-30T11:59:36;26.80;95.70
39677;DHT22;27789;50.840;4.386;2023-07-30T12:02:02;26.20;96.30
39677;DHT22;27789;50.840;4.386;2023-07-30T12:04:43;25.80;96.50
39677;DHT22;27789;50.840;4.386;2023-07-30T12:07:08;25.30;97.30
39677;DHT22;27789;50.840;4.386;2023-07-30T12:09:35;24.70;97.70
39677;DHT22;27789;50.840;4.386;2023-07-30T12:12:01;24.50;97.70
39677;DHT22;27789;50.840;4.386;2023-07-30T12:14:27;25.20;97.30
39677;DHT22;27789;50.840;4.386;2023-07-30T12:16:57;25.60;97.10
39677;DHT22;27789;50.840;4.386;2023-07-30T12:19:22;25.70;96.60
39677;DHT22;27789;50.840;4.386;2023-07-30T12:21:48;25.70;97.40
39677;DHT22;27789;50.840;4.386;2023-07-30T12:24:13;25.90;96.70
39677;DHT22;27789;50.840;4.386;2023-07-30T12:26:39;25.80;97.30
39677;DHT22;27789;50.840;4.386;2023-07-30T12:29:04;25.80;96.70
39677;DHT22;27789;50.840;4.386;2023-07-30T12:31:30;25.30;96.50
39677;DHT22;27789;50.840;4.386;2023-07-30T12:33:55;25.50;96.60
39677;DHT22;27789;50.840;4.386;2023-07-30T12:36:21;25.10;97.30
39677;DHT22;27789;50.840;4.386;2023-07-30T12:38:46;24.60;97.80
39677;DHT22;27789;50.840;4.386;2023-07-30T12:41:12;25.20;97.50
39677;DHT22;27789;50.840;4.386;2023-07-30T12:43:37;24.90;97.30
39677;DHT22;27789;50.840;4.386;2023-07-30T12:46:03;24.60;97.90
39677;DHT22;27789;50.840;4.386;2023-07-30T12:48:28;24.40;98.30
39677;DHT22;27789;50.840;4.386;2023-07-30T12:50:54;24.30;98.00
39677;DHT22;27789;50.840;4.386;2023-07-30T12:53:19;25.30;97.30
39677;DHT22;27789;50.840;4.386;2023-07-30T12:55:45;26.60;97.00
39677;DHT22;27789;50.840;4.386;2023-07-30T12:58:10;26.90;96.20
39677;DHT22;27789;50.840;4.386;2023-07-30T13:00:36;26.20;96.30
39677;DHT22;27789;50.840;4.386;2023-07-30T13:03:02;26.50;95.80
39677;DHT22;27789;50.840;4.386;2023-07-30T13:05:27;27.50;94.80
39677;DHT22;27789;50.840;4.386;2023-07-30T13:07:53;28.00;94.00
39677;DHT22;27789;50.840;4.386;2023-07-30T13:10:18;28.80;93.50
39677;DHT22;27789;50.840;4.386;2023-07-30T13:12:44;28.60;93.50
39677;DHT22;27789;50.840;4.386;2023-07-30T13:15:09;28.40;93.20
39677;DHT22;27789;50.840;4.386;2023-07-30T13:17:36;28.50;93.30
39677;DHT22;27789;50.840;4.386;2023-07-30T13:20:02;28.40;93.80
39677;DHT22;27789;50.840;4.386;2023-07-30T13:22:27;27.40;93.80
39677;DHT22;27789;50.840;4.386;2023-07-30T13:24:53;26.70;94.40
39677;DHT22;27789;50.840;4.386;2023-07-30T13:27:18;26.30;95.00
39677;DHT22;27789;50.840;4.386;2023-07-30T13:29:44;25.80;94.90
39677;DHT22;27789;50.840;4.386;2023-07-30T13:32:10;26.30;95.50
39677;DHT22;27789;50.840;4.386;2023-07-30T13:34:35;26.60;95.20
39677;DHT22;27789;50.840;4.386;2023-07-30T13:37:01;26.80;94.60
39677;DHT22;27789;50.840;4.386;2023-07-30T13:39:27;26.80;94.90
39677;DHT22;27789;50.840;4.386;2023-07-30T13:41:52;27.00;95.50
39677;DHT22;27789;50.840;4.386;2023-07-30T13:44:19;27.00;94.30
39677;DHT22;27789;50.840;4.386;2023-07-30T13:46:44;27.20;94.20
39677;DHT22;27789;50.840;4.386;2023-07-30T13:49:10;27.70;93.80
39677;DHT22;27789;50.840;4.386;2023-07-30T13:51:35;27.70;93.20
39677;DHT22;27789;50.840;4.386;2023-07-30T13:54:01;27.10;94.60
39677;DHT22;27789;50.840;4.386;2023-07-30T13:56:27;26.30;94.40
39677;DHT22;27789;50.840;4.386;2023-07-30T13:58:52;25.90;95.20
39677;DHT22;27789;50.840;4.386;2023-07-30T14:01:18;25.60;95.50
39677;DHT22;27789;50.840;4.386;2023-07-30T14:03:43;25.20;95.60
39677;DHT22;27789;50.840;4.386;2023-07-30T14:06:09;25.10;96.60
39677;DHT22;27789;50.840;4.386;2023-07-30T14:08:35;26.20;96.60
39677;DHT22;27789;50.840;4.386;2023-07-30T14:11:00;27.20;95.90
39677;DHT22;27789;50.840;4.386;2023-07-30T14:13:26;27.40;95.20
39677;DHT22;27789;50.840;4.386;2023-07-30T14:15:51;26.60;95.10
39677;DHT22;27789;50.840;4.386;2023-07-30T14:18:17;25.60;96.40
39677;DHT22;27789;50.840;4.386;2023-07-30T14:20:42;25.10;96.50
39677;DHT22;27789;50.840;4.386;2023-07-30T14:23:08;24.70;97.00
39677;DHT22;27789;50.840;4.386;2023-07-30T14:25:33;24.30;97.40
39677;DHT22;27789;50.840;4.386;2023-07-30T14:27:59;24.10;97.90
39677;DHT22;27789;50.840;4.386;2023-07-30T14:30:24;24.00;98.50
39677;DHT22;27789;50.840;4.386;2023-07-30T14:32:50;24.00;98.30
39677;DHT22;27789;50.840;4.386;2023-07-30T14:35:15;24.00;97.90
39677;DHT22;27789;50.840;4.386;2023-07-30T14:37:41;24.10;98.70
39677;DHT22;27789;50.840;4.386;2023-07-30T14:40:07;24.10;98.80
39677;DHT22;27789;50.840;4.386;2023-07-30T14:42:32;24.10;98.60
39677;DHT22;27789;50.840;4.386;2023-07-30T14:44:58;23.90;99.00
39677;DHT22;27789;50.840;4.386;2023-07-30T14:47:23;23.50;99.60
39677;DHT22;27789;50.840;4.386;2023-07-30T14:49:49;23.40;99.80
39677;DHT22;27789;50.840;4.386;2023-07-30T14:52:16;23.20;99.90
39677;DHT22;27789;50.840;4.386;2023-07-30T14:54:45;23.10;99.90
39677;DHT22;27789;50.840;4.386;2023-07-30T14:57:11;23.70;99.90
39677;DHT22;27789;50.840;4.386;2023-07-30T14:59:36;22.80;99.90
39677;DHT22;27789;50.840;4.386;2023-07-30T15:02:02;22.80;99.90
39677;DHT22;27789;50.840;4.386;2023-07-30T15:04:28;22.70;99.90
39677;DHT22;27789;50.840;4.386;2023-07-30T15:06:55;22.60;99.90
39677;DHT22;27789;50.840;4.386;2023-07-30T15:09:20;22.60;99.90
39677;DHT22;27789;50.840;4.386;2023-07-30T15:11:46;22.60;99.90
39677;DHT22;27789;50.840;4.386;2023-07-30T15:14:11;22.40;99.90
39677;DHT22;27789;50.840;4.386;2023-07-30T15:16:37;22.30;99.90
39677;DHT22;27789;50.840;4.386;2023-07-30T15:19:02;22.10;99.90
39677;DHT22;27789;50.840;4.386;2023-07-30T15:21:29;22.00;99.90
39677;DHT22;27789;50.840;4.386;2023-07-30T15:23:54;21.80;99.90